Terminal Aerodrome Forecast
Issued by NWS

Home | Current Version | Previous Version | Text Only | Print | Product List | Glossary On
Versions: 1 2 3 4 5 6 7 8 9 10 11 12 13 14 15 16 17 18 19 20 21 22 23 24 25 26 27 28 29 30 31 32 33
858
FTUS44 KFWD 282100 AAB
TAFDAL
TAF AMD
KDAL 282100Z 2821/2918 01011KT P6SM -SHRA BKN018 BKN040 OVC130
     FM282300 01010KT P6SM -SHRA BKN025 BKN040 OVC130
     FM290100 02012KT P6SM FEW035 SCT150=

USA.gov is the U.S. government's official web portal to all federal, state and local government web resources and services.